sensor_id;sensor_type;location;lat;lon;timestamp;P1;durP1;ratioP1;P2;durP2;ratioP2
6951;SDS011;3515;50.138;8.502;2022-09-28T00:00:05;2;;;0;;
6951;SDS011;3515;50.138;8.502;2022-09-28T00:02:30;2;;;0;;
6951;SDS011;3515;50.138;8.502;2022-09-28T00:04:55;2;;;0;;
6951;SDS011;3515;50.138;8.502;2022-09-28T00:07:20;2;;;0;;
6951;SDS011;3515;50.138;8.502;2022-09-28T00:09:46;2;;;0;;
6951;SDS011;3515;50.138;8.502;2022-09-28T00:12:11;2;;;0;;
6951;SDS011;3515;50.138;8.502;2022-09-28T00:14:37;2;;;0;;
6951;SDS011;3515;50.138;8.502;2022-09-28T00:17:02;2;;;0;;
6951;SDS011;3515;50.138;8.502;2022-09-28T00:19:27;2;;;0;;
6951;SDS011;3515;50.138;8.502;2022-09-28T00:21:52;2;;;0;;
6951;SDS011;3515;50.138;8.502;2022-09-28T00:24:18;2;;;0;;
6951;SDS011;3515;50.138;8.502;2022-09-28T00:26:45;2;;;0;;
6951;SDS011;3515;50.138;8.502;2022-09-28T00:29:13;2;;;0;;
6951;SDS011;3515;50.138;8.502;2022-09-28T00:31:34;2;;;0;;
6951;SDS011;3515;50.138;8.502;2022-09-28T00:34:00;2;;;0;;
6951;SDS011;3515;50.138;8.502;2022-09-28T00:36:25;2;;;0;;
6951;SDS011;3515;50.138;8.502;2022-09-28T00:38:50;2;;;0;;
6951;SDS011;3515;50.138;8.502;2022-09-28T00:41:15;2;;;0;;
6951;SDS011;3515;50.138;8.502;2022-09-28T00:43:43;2;;;0;;
6951;SDS011;3515;50.138;8.502;2022-09-28T00:46:09;2;;;0;;
6951;SDS011;3515;50.138;8.502;2022-09-28T00:48:34;2;;;0;;
6951;SDS011;3515;50.138;8.502;2022-09-28T00:51:00;2;;;0;;
6951;SDS011;3515;50.138;8.502;2022-09-28T00:53:25;2;;;0;;
6951;SDS011;3515;50.138;8.502;2022-09-28T00:55:51;2;;;0;;
6951;SDS011;3515;50.138;8.502;2022-09-28T00:58:17;2;;;0;;
6951;SDS011;3515;50.138;8.502;2022-09-28T01:00:40;2;;;0;;
6951;SDS011;3515;50.138;8.502;2022-09-28T01:03:06;2;;;0;;
6951;SDS011;3515;50.138;8.502;2022-09-28T01:05:31;2;;;0;;
6951;SDS011;3515;50.138;8.502;2022-09-28T01:07:56;2;;;0;;
6951;SDS011;3515;50.138;8.502;2022-09-28T01:10:22;2;;;0;;
6951;SDS011;3515;50.138;8.502;2022-09-28T01:12:47;2;;;0;;
6951;SDS011;3515;50.138;8.502;2022-09-28T01:15:12;2;;;0;;
6951;SDS011;3515;50.138;8.502;2022-09-28T01:17:46;2;;;0;;
6951;SDS011;3515;50.138;8.502;2022-09-28T01:20:21;2;;;0;;
6951;SDS011;3515;50.138;8.502;2022-09-28T01:22:46;2;;;0;;
6951;SDS011;3515;50.138;8.502;2022-09-28T01:25:00;2;;;0;;
6951;SDS011;3515;50.138;8.502;2022-09-28T01:27:24;2;;;0;;
6951;SDS011;3515;50.138;8.502;2022-09-28T01:29:53;2;;;0;;
6951;SDS011;3515;50.138;8.502;2022-09-28T01:32:20;2;;;0;;
6951;SDS011;3515;50.138;8.502;2022-09-28T01:34:42;2;;;0;;
6951;SDS011;3515;50.138;8.502;2022-09-28T01:37:06;2;;;0;;
6951;SDS011;3515;50.138;8.502;2022-09-28T01:39:31;2;;;0;;
6951;SDS011;3515;50.138;8.502;2022-09-28T01:41:57;2;;;0;;
6951;SDS011;3515;50.138;8.502;2022-09-28T01:44:21;2;;;0;;
6951;SDS011;3515;50.138;8.502;2022-09-28T01:46:47;2;;;0;;
6951;SDS011;3515;50.138;8.502;2022-09-28T01:49:13;2;;;0;;
6951;SDS011;3515;50.138;8.502;2022-09-28T01:51:39;2;;;0;;
6951;SDS011;3515;50.138;8.502;2022-09-28T01:54:04;2;;;0;;
6951;SDS011;3515;50.138;8.502;2022-09-28T01:56:29;2;;;0;;
6951;SDS011;3515;50.138;8.502;2022-09-28T01:58:54;2;;;0;;
6951;SDS011;3515;50.138;8.502;2022-09-28T02:01:20;2;;;0;;
6951;SDS011;3515;50.138;8.502;2022-09-28T02:03:45;2;;;0;;
6951;SDS011;3515;50.138;8.502;2022-09-28T02:06:14;2;;;0;;
6951;SDS011;3515;50.138;8.502;2022-09-28T02:08:40;2;;;0;;
6951;SDS011;3515;50.138;8.502;2022-09-28T02:11:06;2;;;0;;
6951;SDS011;3515;50.138;8.502;2022-09-28T02:13:31;2;;;0;;
6951;SDS011;3515;50.138;8.502;2022-09-28T02:15:56;2;;;0;;
6951;SDS011;3515;50.138;8.502;2022-09-28T02:18:20;2;;;0;;
6951;SDS011;3515;50.138;8.502;2022-09-28T02:20:49;2;;;0;;
6951;SDS011;3515;50.138;8.502;2022-09-28T02:23:11;2;;;0;;
6951;SDS011;3515;50.138;8.502;2022-09-28T02:25:38;2;;;0;;
6951;SDS011;3515;50.138;8.502;2022-09-28T02:28:03;2;;;0;;
6951;SDS011;3515;50.138;8.502;2022-09-28T02:30:28;2;;;0;;
6951;SDS011;3515;50.138;8.502;2022-09-28T02:32:53;2;;;0;;
6951;SDS011;3515;50.138;8.502;2022-09-28T02:35:18;2;;;0;;
6951;SDS011;3515;50.138;8.502;2022-09-28T02:37:43;2;;;0;;
6951;SDS011;3515;50.138;8.502;2022-09-28T02:40:12;2;;;0;;
6951;SDS011;3515;50.138;8.502;2022-09-28T02:42:36;2;;;0;;
6951;SDS011;3515;50.138;8.502;2022-09-28T02:45:03;2;;;0;;
6951;SDS011;3515;50.138;8.502;2022-09-28T02:47:26;2;;;0;;
6951;SDS011;3515;50.138;8.502;2022-09-28T02:49:51;2;;;0;;
6951;SDS011;3515;50.138;8.502;2022-09-28T02:52:24;2;;;0;;
6951;SDS011;3515;50.138;8.502;2022-09-28T02:54:45;2;;;0;;
6951;SDS011;3515;50.138;8.502;2022-09-28T02:57:10;2;;;0;;
6951;SDS011;3515;50.138;8.502;2022-09-28T02:59:35;2;;;0;;
6951;SDS011;3515;50.138;8.502;2022-09-28T03:01:59;2;;;0;;
6951;SDS011;3515;50.138;8.502;2022-09-28T03:04:25;2;;;0;;
6951;SDS011;3515;50.138;8.502;2022-09-28T03:06:49;2;;;0;;
6951;SDS011;3515;50.138;8.502;2022-09-28T03:09:13;2;;;0;;
6951;SDS011;3515;50.138;8.502;2022-09-28T03:11:39;2;;;0;;
6951;SDS011;3515;50.138;8.502;2022-09-28T03:14:03;2;;;0;;
6951;SDS011;3515;50.138;8.502;2022-09-28T03:16:28;2;;;0;;
6951;SDS011;3515;50.138;8.502;2022-09-28T03:18:54;2;;;0;;
6951;SDS011;3515;50.138;8.502;2022-09-28T03:21:19;2;;;0;;
6951;SDS011;3515;50.138;8.502;2022-09-28T03:23:44;2;;;0;;
6951;SDS011;3515;50.138;8.502;2022-09-28T03:26:10;2;;;0;;
6951;SDS011;3515;50.138;8.502;2022-09-28T03:28:35;2;;;0;;
6951;SDS011;3515;50.138;8.502;2022-09-28T03:31:00;2;;;0;;
6951;SDS011;3515;50.138;8.502;2022-09-28T03:33:26;2;;;0;;
6951;SDS011;3515;50.138;8.502;2022-09-28T03:35:51;2;;;0;;
6951;SDS011;3515;50.138;8.502;2022-09-28T03:38:17;2;;;0;;
6951;SDS011;3515;50.138;8.502;2022-09-28T03:40:42;2;;;0;;
6951;SDS011;3515;50.138;8.502;2022-09-28T03:43:07;2;;;0;;
6951;SDS011;3515;50.138;8.502;2022-09-28T03:45:32;2;;;0;;
6951;SDS011;3515;50.138;8.502;2022-09-28T03:47:58;2;;;0;;
6951;SDS011;3515;50.138;8.502;2022-09-28T03:50:23;2;;;0;;
6951;SDS011;3515;50.138;8.502;2022-09-28T03:52:48;2;;;0;;
6951;SDS011;3515;50.138;8.502;2022-09-28T03:55:14;3;;;0;;
6951;SDS011;3515;50.138;8.502;2022-09-28T03:57:39;3;;;0;;
6951;SDS011;3515;50.138;8.502;2022-09-28T04:00:05;3;;;0;;
6951;SDS011;3515;50.138;8.502;2022-09-28T04:02:30;3;;;0;;
6951;SDS011;3515;50.138;8.502;2022-09-28T04:04:55;3;;;0;;
6951;SDS011;3515;50.138;8.502;2022-09-28T04:07:20;3;;;0;;
6951;SDS011;3515;50.138;8.502;2022-09-28T04:09:46;3;;;0;;
6951;SDS011;3515;50.138;8.502;2022-09-28T04:12:11;3;;;0;;
6951;SDS011;3515;50.138;8.502;2022-09-28T04:14:36;2;;;0;;
6951;SDS011;3515;50.138;8.502;2022-09-28T04:17:02;2;;;0;;
6951;SDS011;3515;50.138;8.502;2022-09-28T04:19:27;2;;;0;;
6951;SDS011;3515;50.138;8.502;2022-09-28T04:21:52;2;;;0;;
6951;SDS011;3515;50.138;8.502;2022-09-28T04:24:18;2;;;0;;
6951;SDS011;3515;50.138;8.502;2022-09-28T04:26:43;2;;;0;;
6951;SDS011;3515;50.138;8.502;2022-09-28T04:29:08;2;;;0;;
6951;SDS011;3515;50.138;8.502;2022-09-28T04:31:37;3;;;0;;
6951;SDS011;3515;50.138;8.502;2022-09-28T04:33:59;3;;;0;;
6951;SDS011;3515;50.138;8.502;2022-09-28T04:36:24;3;;;0;;
6951;SDS011;3515;50.138;8.502;2022-09-28T04:38:50;3;;;0;;
6951;SDS011;3515;50.138;8.502;2022-09-28T04:41:15;2;;;0;;
6951;SDS011;3515;50.138;8.502;2022-09-28T04:43:45;2;;;0;;
6951;SDS011;3515;50.138;8.502;2022-09-28T04:46:11;2;;;0;;
6951;SDS011;3515;50.138;8.502;2022-09-28T04:48:36;2;;;0;;
6951;SDS011;3515;50.138;8.502;2022-09-28T04:51:01;2;;;0;;
6951;SDS011;3515;50.138;8.502;2022-09-28T04:53:27;2;;;0;;
6951;SDS011;3515;50.138;8.502;2022-09-28T04:55:55;2;;;0;;
6951;SDS011;3515;50.138;8.502;2022-09-28T04:58:17;3;;;0;;
6951;SDS011;3515;50.138;8.502;2022-09-28T05:00:43;3;;;0;;
6951;SDS011;3515;50.138;8.502;2022-09-28T05:03:08;3;;;0;;
6951;SDS011;3515;50.138;8.502;2022-09-28T05:05:33;3;;;0;;
6951;SDS011;3515;50.138;8.502;2022-09-28T05:07:59;3;;;0;;
6951;SDS011;3515;50.138;8.502;2022-09-28T05:10:24;3;;;0;;
6951;SDS011;3515;50.138;8.502;2022-09-28T05:12:49;3;;;0;;
6951;SDS011;3515;50.138;8.502;2022-09-28T05:15:15;4;;;0;;
6951;SDS011;3515;50.138;8.502;2022-09-28T05:17:40;3;;;0;;
6951;SDS011;3515;50.138;8.502;2022-09-28T05:20:06;4;;;0;;
6951;SDS011;3515;50.138;8.502;2022-09-28T05:22:31;4;;;0;;
6951;SDS011;3515;50.138;8.502;2022-09-28T05:24:56;4;;;0;;
6951;SDS011;3515;50.138;8.502;2022-09-28T05:27:21;3;;;0;;
6951;SDS011;3515;50.138;8.502;2022-09-28T05:29:47;3;;;0;;
6951;SDS011;3515;50.138;8.502;2022-09-28T05:32:12;3;;;0;;
6951;SDS011;3515;50.138;8.502;2022-09-28T05:34:37;3;;;0;;
6951;SDS011;3515;50.138;8.502;2022-09-28T05:37:03;3;;;0;;
6951;SDS011;3515;50.138;8.502;2022-09-28T05:39:28;3;;;0;;
6951;SDS011;3515;50.138;8.502;2022-09-28T05:41:53;3;;;0;;
6951;SDS011;3515;50.138;8.502;2022-09-28T05:44:19;3;;;0;;
6951;SDS011;3515;50.138;8.502;2022-09-28T05:46:44;42;;;2;;
6951;SDS011;3515;50.138;8.502;2022-09-28T05:49:09;56;;;2;;
6951;SDS011;3515;50.138;8.502;2022-09-28T05:51:35;56;;;2;;
6951;SDS011;3515;50.138;8.502;2022-09-28T05:54:00;56;;;2;;
6951;SDS011;3515;50.138;8.502;2022-09-28T05:56:25;56;;;2;;
6951;SDS011;3515;50.138;8.502;2022-09-28T05:58:50;56;;;2;;
6951;SDS011;3515;50.138;8.502;2022-09-28T06:01:16;55;;;2;;
6951;SDS011;3515;50.138;8.502;2022-09-28T06:03:41;55;;;2;;
6951;SDS011;3515;50.138;8.502;2022-09-28T06:06:19;17;;;1;;
6951;SDS011;3515;50.138;8.502;2022-09-28T06:08:37;4;;;0;;
6951;SDS011;3515;50.138;8.502;2022-09-28T06:11:02;4;;;0;;
6951;SDS011;3515;50.138;8.502;2022-09-28T06:13:27;4;;;0;;
6951;SDS011;3515;50.138;8.502;2022-09-28T06:15:53;4;;;0;;
6951;SDS011;3515;50.138;8.502;2022-09-28T06:18:18;4;;;0;;
6951;SDS011;3515;50.138;8.502;2022-09-28T06:20:43;5;;;0;;
6951;SDS011;3515;50.138;8.502;2022-09-28T06:23:09;5;;;0;;
6951;SDS011;3515;50.138;8.502;2022-09-28T06:25:34;4;;;0;;
6951;SDS011;3515;50.138;8.502;2022-09-28T06:28:00;6;;;0;;
6951;SDS011;3515;50.138;8.502;2022-09-28T06:30:25;7;;;0;;
6951;SDS011;3515;50.138;8.502;2022-09-28T06:32:51;7;;;0;;
6951;SDS011;3515;50.138;8.502;2022-09-28T06:35:15;7;;;0;;
6951;SDS011;3515;50.138;8.502;2022-09-28T06:37:43;9;;;0;;
6951;SDS011;3515;50.138;8.502;2022-09-28T06:40:06;9;;;0;;
6951;SDS011;3515;50.138;8.502;2022-09-28T06:42:31;10;;;0;;
6951;SDS011;3515;50.138;8.502;2022-09-28T06:44:56;10;;;0;;
6951;SDS011;3515;50.138;8.502;2022-09-28T06:47:22;7;;;0;;
6951;SDS011;3515;50.138;8.502;2022-09-28T06:49:47;6;;;0;;
6951;SDS011;3515;50.138;8.502;2022-09-28T06:52:12;6;;;0;;
6951;SDS011;3515;50.138;8.502;2022-09-28T06:54:38;6;;;0;;
6951;SDS011;3515;50.138;8.502;2022-09-28T06:57:03;4;;;0;;
6951;SDS011;3515;50.138;8.502;2022-09-28T06:59:28;3;;;0;;
6951;SDS011;3515;50.138;8.502;2022-09-28T07:01:54;3;;;0;;
6951;SDS011;3515;50.138;8.502;2022-09-28T07:04:19;2;;;0;;
6951;SDS011;3515;50.138;8.502;2022-09-28T07:06:45;2;;;0;;
6951;SDS011;3515;50.138;8.502;2022-09-28T07:09:09;2;;;0;;
6951;SDS011;3515;50.138;8.502;2022-09-28T07:11:36;2;;;0;;
6951;SDS011;3515;50.138;8.502;2022-09-28T07:14:00;2;;;0;;
6951;SDS011;3515;50.138;8.502;2022-09-28T07:16:25;2;;;0;;
6951;SDS011;3515;50.138;8.502;2022-09-28T07:18:50;3;;;0;;
6951;SDS011;3515;50.138;8.502;2022-09-28T07:21:19;3;;;0;;
6951;SDS011;3515;50.138;8.502;2022-09-28T07:23:44;3;;;0;;
6951;SDS011;3515;50.138;8.502;2022-09-28T07:26:10;3;;;0;;
6951;SDS011;3515;50.138;8.502;2022-09-28T07:28:35;3;;;0;;
6951;SDS011;3515;50.138;8.502;2022-09-28T07:31:00;3;;;0;;
6951;SDS011;3515;50.138;8.502;2022-09-28T07:33:25;3;;;0;;
6951;SDS011;3515;50.138;8.502;2022-09-28T07:35:51;3;;;0;;
6951;SDS011;3515;50.138;8.502;2022-09-28T07:38:16;2;;;0;;
6951;SDS011;3515;50.138;8.502;2022-09-28T07:40:41;2;;;0;;
6951;SDS011;3515;50.138;8.502;2022-09-28T07:43:07;2;;;0;;
6951;SDS011;3515;50.138;8.502;2022-09-28T07:45:32;2;;;0;;
6951;SDS011;3515;50.138;8.502;2022-09-28T07:47:57;2;;;0;;
6951;SDS011;3515;50.138;8.502;2022-09-28T07:50:23;2;;;0;;
6951;SDS011;3515;50.138;8.502;2022-09-28T07:52:48;2;;;0;;
6951;SDS011;3515;50.138;8.502;2022-09-28T07:55:14;3;;;0;;
6951;SDS011;3515;50.138;8.502;2022-09-28T07:57:39;3;;;0;;
6951;SDS011;3515;50.138;8.502;2022-09-28T08:00:05;3;;;0;;
6951;SDS011;3515;50.138;8.502;2022-09-28T08:02:29;3;;;0;;
6951;SDS011;3515;50.138;8.502;2022-09-28T08:04:55;3;;;0;;
6951;SDS011;3515;50.138;8.502;2022-09-28T08:07:20;4;;;0;;
6951;SDS011;3515;50.138;8.502;2022-09-28T08:09:45;4;;;0;;
6951;SDS011;3515;50.138;8.502;2022-09-28T08:12:11;4;;;0;;
6951;SDS011;3515;50.138;8.502;2022-09-28T08:14:36;4;;;0;;
6951;SDS011;3515;50.138;8.502;2022-09-28T08:17:01;4;;;0;;
6951;SDS011;3515;50.138;8.502;2022-09-28T08:19:26;4;;;0;;
6951;SDS011;3515;50.138;8.502;2022-09-28T08:21:51;4;;;0;;
6951;SDS011;3515;50.138;8.502;2022-09-28T08:24:17;3;;;0;;
6951;SDS011;3515;50.138;8.502;2022-09-28T08:26:42;3;;;0;;
6951;SDS011;3515;50.138;8.502;2022-09-28T08:29:07;3;;;0;;
6951;SDS011;3515;50.138;8.502;2022-09-28T08:31:32;2;;;0;;
6951;SDS011;3515;50.138;8.502;2022-09-28T08:33:58;2;;;0;;
6951;SDS011;3515;50.138;8.502;2022-09-28T08:36:23;2;;;0;;
6951;SDS011;3515;50.138;8.502;2022-09-28T08:38:48;3;;;0;;
6951;SDS011;3515;50.138;8.502;2022-09-28T08:41:15;3;;;0;;
6951;SDS011;3515;50.138;8.502;2022-09-28T08:43:46;2;;;0;;
6951;SDS011;3515;50.138;8.502;2022-09-28T08:46:04;2;;;0;;
6951;SDS011;3515;50.138;8.502;2022-09-28T08:48:29;2;;;0;;
6951;SDS011;3515;50.138;8.502;2022-09-28T08:50:55;2;;;0;;
6951;SDS011;3515;50.138;8.502;2022-09-28T08:53:29;2;;;0;;
6951;SDS011;3515;50.138;8.502;2022-09-28T08:55:45;2;;;0;;
6951;SDS011;3515;50.138;8.502;2022-09-28T08:58:11;1;;;0;;
6951;SDS011;3515;50.138;8.502;2022-09-28T09:00:37;1;;;0;;
6951;SDS011;3515;50.138;8.502;2022-09-28T09:03:03;1;;;0;;
6951;SDS011;3515;50.138;8.502;2022-09-28T09:05:33;2;;;0;;
6951;SDS011;3515;50.138;8.502;2022-09-28T09:07:58;2;;;0;;
6951;SDS011;3515;50.138;8.502;2022-09-28T09:10:23;2;;;0;;
6951;SDS011;3515;50.138;8.502;2022-09-28T09:12:43;2;;;0;;
6951;SDS011;3515;50.138;8.502;2022-09-28T09:15:14;2;;;0;;
6951;SDS011;3515;50.138;8.502;2022-09-28T09:17:37;3;;;0;;
6951;SDS011;3515;50.138;8.502;2022-09-28T09:19:59;2;;;0;;
6951;SDS011;3515;50.138;8.502;2022-09-28T09:22:26;2;;;0;;
6951;SDS011;3515;50.138;8.502;2022-09-28T09:24:48;2;;;0;;
6951;SDS011;3515;50.138;8.502;2022-09-28T09:27:17;3;;;0;;
6951;SDS011;3515;50.138;8.502;2022-09-28T09:29:42;6;;;0;;
6951;SDS011;3515;50.138;8.502;2022-09-28T09:32:10;5;;;0;;
6951;SDS011;3515;50.138;8.502;2022-09-28T09:34:33;6;;;0;;
6951;SDS011;3515;50.138;8.502;2022-09-28T09:37:02;6;;;0;;
6951;SDS011;3515;50.138;8.502;2022-09-28T09:39:23;6;;;0;;
6951;SDS011;3515;50.138;8.502;2022-09-28T09:41:52;6;;;0;;
6951;SDS011;3515;50.138;8.502;2022-09-28T09:44:17;5;;;0;;
6951;SDS011;3515;50.138;8.502;2022-09-28T09:46:36;5;;;0;;
6951;SDS011;3515;50.138;8.502;2022-09-28T09:49:03;2;;;0;;
6951;SDS011;3515;50.138;8.502;2022-09-28T09:51:27;2;;;0;;
6951;SDS011;3515;50.138;8.502;2022-09-28T09:53:51;2;;;0;;
6951;SDS011;3515;50.138;8.502;2022-09-28T09:56:17;2;;;0;;
6951;SDS011;3515;50.138;8.502;2022-09-28T09:58:46;2;;;0;;
6951;SDS011;3515;50.138;8.502;2022-09-28T10:01:11;2;;;0;;
6951;SDS011;3515;50.138;8.502;2022-09-28T10:03:37;2;;;0;;
6951;SDS011;3515;50.138;8.502;2022-09-28T10:06:02;2;;;0;;
6951;SDS011;3515;50.138;8.502;2022-09-28T10:08:26;2;;;0;;
6951;SDS011;3515;50.138;8.502;2022-09-28T10:10:52;1;;;0;;
6951;SDS011;3515;50.138;8.502;2022-09-28T10:13:17;2;;;0;;
6951;SDS011;3515;50.138;8.502;2022-09-28T10:15:42;2;;;0;;
6951;SDS011;3515;50.138;8.502;2022-09-28T10:18:09;2;;;0;;
6951;SDS011;3515;50.138;8.502;2022-09-28T10:20:33;2;;;0;;
6951;SDS011;3515;50.138;8.502;2022-09-28T10:22:58;2;;;0;;
6951;SDS011;3515;50.138;8.502;2022-09-28T10:25:23;2;;;0;;
6951;SDS011;3515;50.138;8.502;2022-09-28T10:27:48;2;;;0;;
6951;SDS011;3515;50.138;8.502;2022-09-28T10:30:14;3;;;0;;
6951;SDS011;3515;50.138;8.502;2022-09-28T10:32:39;3;;;0;;
6951;SDS011;3515;50.138;8.502;2022-09-28T10:35:11;3;;;0;;
6951;SDS011;3515;50.138;8.502;2022-09-28T10:37:29;3;;;0;;
6951;SDS011;3515;50.138;8.502;2022-09-28T10:39:55;3;;;0;;
6951;SDS011;3515;50.138;8.502;2022-09-28T10:42:21;3;;;0;;
6951;SDS011;3515;50.138;8.502;2022-09-28T10:44:49;3;;;0;;
6951;SDS011;3515;50.138;8.502;2022-09-28T10:47:12;3;;;0;;
6951;SDS011;3515;50.138;8.502;2022-09-28T10:49:38;2;;;0;;
6951;SDS011;3515;50.138;8.502;2022-09-28T10:52:01;2;;;0;;
6951;SDS011;3515;50.138;8.502;2022-09-28T10:54:26;2;;;0;;
6951;SDS011;3515;50.138;8.502;2022-09-28T10:56:52;1;;;0;;
6951;SDS011;3515;50.138;8.502;2022-09-28T10:59:36;1;;;0;;
6951;SDS011;3515;50.138;8.502;2022-09-28T11:01:42;2;;;0;;
6951;SDS011;3515;50.138;8.502;2022-09-28T11:04:13;2;;;0;;
6951;SDS011;3515;50.138;8.502;2022-09-28T11:06:34;1;;;0;;
6951;SDS011;3515;50.138;8.502;2022-09-28T11:08:59;1;;;0;;
6951;SDS011;3515;50.138;8.502;2022-09-28T11:11:23;1;;;0;;
6951;SDS011;3515;50.138;8.502;2022-09-28T11:13:52;1;;;0;;
6951;SDS011;3515;50.138;8.502;2022-09-28T11:16:19;1;;;0;;
6951;SDS011;3515;50.138;8.502;2022-09-28T11:18:42;1;;;0;;
6951;SDS011;3515;50.138;8.502;2022-09-28T11:21:08;1;;;0;;
6951;SDS011;3515;50.138;8.502;2022-09-28T11:23:33;1;;;0;;
6951;SDS011;3515;50.138;8.502;2022-09-28T11:25:59;1;;;0;;
6951;SDS011;3515;50.138;8.502;2022-09-28T11:28:25;1;;;0;;
6951;SDS011;3515;50.138;8.502;2022-09-28T11:30:49;2;;;0;;
6951;SDS011;3515;50.138;8.502;2022-09-28T11:33:14;2;;;0;;
6951;SDS011;3515;50.138;8.502;2022-09-28T11:35:44;2;;;0;;
6951;SDS011;3515;50.138;8.502;2022-09-28T11:38:13;2;;;0;;
6951;SDS011;3515;50.138;8.502;2022-09-28T11:40:37;2;;;0;;
6951;SDS011;3515;50.138;8.502;2022-09-28T11:43:01;2;;;0;;
6951;SDS011;3515;50.138;8.502;2022-09-28T11:45:28;2;;;0;;
6951;SDS011;3515;50.138;8.502;2022-09-28T11:47:47;2;;;0;;
6951;SDS011;3515;50.138;8.502;2022-09-28T11:50:15;2;;;0;;
6951;SDS011;3515;50.138;8.502;2022-09-28T11:52:38;2;;;0;;
6951;SDS011;3515;50.138;8.502;2022-09-28T11:55:03;2;;;0;;
6951;SDS011;3515;50.138;8.502;2022-09-28T11:57:28;2;;;0;;
6951;SDS011;3515;50.138;8.502;2022-09-28T11:59:55;1;;;0;;
6951;SDS011;3515;50.138;8.502;2022-09-28T12:02:19;1;;;0;;
6951;SDS011;3515;50.138;8.502;2022-09-28T12:04:43;2;;;0;;
6951;SDS011;3515;50.138;8.502;2022-09-28T12:07:09;2;;;0;;
6951;SDS011;3515;50.138;8.502;2022-09-28T12:09:34;3;;;0;;
6951;SDS011;3515;50.138;8.502;2022-09-28T12:11:59;3;;;0;;
6951;SDS011;3515;50.138;8.502;2022-09-28T12:14:25;3;;;0;;
6951;SDS011;3515;50.138;8.502;2022-09-28T12:16:50;3;;;0;;
6951;SDS011;3515;50.138;8.502;2022-09-28T12:19:15;3;;;0;;
6951;SDS011;3515;50.138;8.502;2022-09-28T12:21:41;3;;;0;;
6951;SDS011;3515;50.138;8.502;2022-09-28T12:24:08;3;;;0;;
6951;SDS011;3515;50.138;8.502;2022-09-28T12:26:31;3;;;0;;
6951;SDS011;3515;50.138;8.502;2022-09-28T12:28:56;2;;;0;;
6951;SDS011;3515;50.138;8.502;2022-09-28T12:31:22;2;;;0;;
6951;SDS011;3515;50.138;8.502;2022-09-28T12:33:47;2;;;0;;
6951;SDS011;3515;50.138;8.502;2022-09-28T12:36:16;2;;;0;;
6951;SDS011;3515;50.138;8.502;2022-09-28T12:38:39;2;;;0;;
6951;SDS011;3515;50.138;8.502;2022-09-28T12:41:03;2;;;0;;
6951;SDS011;3515;50.138;8.502;2022-09-28T12:43:32;2;;;0;;
6951;SDS011;3515;50.138;8.502;2022-09-28T12:45:56;2;;;0;;
6951;SDS011;3515;50.138;8.502;2022-09-28T12:48:25;1;;;0;;
6951;SDS011;3515;50.138;8.502;2022-09-28T12:50:43;1;;;0;;
6951;SDS011;3515;50.138;8.502;2022-09-28T12:53:18;1;;;0;;
6951;SDS011;3515;50.138;8.502;2022-09-28T12:55:39;1;;;0;;
6951;SDS011;3515;50.138;8.502;2022-09-28T12:57:59;1;;;0;;
6951;SDS011;3515;50.138;8.502;2022-09-28T13:00:24;1;;;0;;
6951;SDS011;3515;50.138;8.502;2022-09-28T13:02:55;1;;;0;;
6951;SDS011;3515;50.138;8.502;2022-09-28T13:05:18;1;;;0;;
6951;SDS011;3515;50.138;8.502;2022-09-28T13:07:41;1;;;0;;
6951;SDS011;3515;50.138;8.502;2022-09-28T13:10:09;1;;;0;;
6951;SDS011;3515;50.138;8.502;2022-09-28T13:12:36;1;;;0;;
6951;SDS011;3515;50.138;8.502;2022-09-28T13:15:06;1;;;0;;
6951;SDS011;3515;50.138;8.502;2022-09-28T13:17:23;1;;;0;;
6951;SDS011;3515;50.138;8.502;2022-09-28T13:19:47;1;;;0;;
6951;SDS011;3515;50.138;8.502;2022-09-28T13:22:15;1;;;0;;
6951;SDS011;3515;50.138;8.502;2022-09-28T13:24:37;1;;;0;;
6951;SDS011;3515;50.138;8.502;2022-09-28T13:27:02;1;;;0;;
6951;SDS011;3515;50.138;8.502;2022-09-28T13:29:26;1;;;0;;
6951;SDS011;3515;50.138;8.502;2022-09-28T13:31:52;1;;;0;;
6951;SDS011;3515;50.138;8.502;2022-09-28T13:34:18;1;;;0;;
6951;SDS011;3515;50.138;8.502;2022-09-28T13:36:42;2;;;0;;
6951;SDS011;3515;50.138;8.502;2022-09-28T13:41:33;2;;;0;;
6951;SDS011;3515;50.138;8.502;2022-09-28T13:46:25;1;;;0;;
6951;SDS011;3515;50.138;8.502;2022-09-28T13:48:50;1;;;0;;
6951;SDS011;3515;50.138;8.502;2022-09-28T13:51:28;1;;;0;;
6951;SDS011;3515;50.138;8.502;2022-09-28T13:53:43;1;;;0;;
6951;SDS011;3515;50.138;8.502;2022-09-28T13:56:11;1;;;0;;
6951;SDS011;3515;50.138;8.502;2022-09-28T13:58:30;1;;;0;;
6951;SDS011;3515;50.138;8.502;2022-09-28T14:00:57;1;;;0;;
6951;SDS011;3515;50.138;8.502;2022-09-28T14:03:23;1;;;0;;
6951;SDS011;3515;50.138;8.502;2022-09-28T14:05:49;2;;;0;;
6951;SDS011;3515;50.138;8.502;2022-09-28T14:13:01;2;;;0;;
6951;SDS011;3515;50.138;8.502;2022-09-28T14:17:56;2;;;0;;
6951;SDS011;3515;50.138;8.502;2022-09-28T14:20:18;2;;;0;;
6951;SDS011;3515;50.138;8.502;2022-09-28T14:22:49;2;;;0;;
6951;SDS011;3515;50.138;8.502;2022-09-28T14:25:08;2;;;0;;
6951;SDS011;3515;50.138;8.502;2022-09-28T14:30:14;2;;;0;;
6951;SDS011;3515;50.138;8.502;2022-09-28T14:32:24;3;;;0;;
6951;SDS011;3515;50.138;8.502;2022-09-28T14:34:57;3;;;0;;
6951;SDS011;3515;50.138;8.502;2022-09-28T14:37:17;3;;;0;;
6951;SDS011;3515;50.138;8.502;2022-09-28T14:39:42;3;;;0;;
6951;SDS011;3515;50.138;8.502;2022-09-28T14:42:08;3;;;0;;
6951;SDS011;3515;50.138;8.502;2022-09-28T14:44:30;3;;;0;;
6951;SDS011;3515;50.138;8.502;2022-09-28T14:47:23;4;;;0;;
6951;SDS011;3515;50.138;8.502;2022-09-28T14:51:58;4;;;0;;
6951;SDS011;3515;50.138;8.502;2022-09-28T14:54:16;4;;;0;;
6951;SDS011;3515;50.138;8.502;2022-09-28T14:56:40;5;;;0;;
6951;SDS011;3515;50.138;8.502;2022-09-28T14:59:05;6;;;0;;
6951;SDS011;3515;50.138;8.502;2022-09-28T15:01:30;6;;;0;;
6951;SDS011;3515;50.138;8.502;2022-09-28T15:03:55;6;;;0;;
6951;SDS011;3515;50.138;8.502;2022-09-28T15:06:22;6;;;0;;
6951;SDS011;3515;50.138;8.502;2022-09-28T15:08:47;6;;;0;;
6951;SDS011;3515;50.138;8.502;2022-09-28T15:11:14;6;;;0;;
6951;SDS011;3515;50.138;8.502;2022-09-28T15:13:38;6;;;0;;
6951;SDS011;3515;50.138;8.502;2022-09-28T15:16:03;6;;;0;;
6951;SDS011;3515;50.138;8.502;2022-09-28T15:18:38;5;;;0;;
6951;SDS011;3515;50.138;8.502;2022-09-28T15:20:53;4;;;0;;
6951;SDS011;3515;50.138;8.502;2022-09-28T15:23:23;4;;;0;;
6951;SDS011;3515;50.138;8.502;2022-09-28T15:25:49;3;;;0;;
6951;SDS011;3515;50.138;8.502;2022-09-28T15:28:12;3;;;0;;
6951;SDS011;3515;50.138;8.502;2022-09-28T15:30:34;2;;;0;;
6951;SDS011;3515;50.138;8.502;2022-09-28T15:33:00;2;;;0;;
6951;SDS011;3515;50.138;8.502;2022-09-28T15:35:25;2;;;0;;
6951;SDS011;3515;50.138;8.502;2022-09-28T15:37:50;2;;;0;;
6951;SDS011;3515;50.138;8.502;2022-09-28T15:40:16;2;;;0;;
6951;SDS011;3515;50.138;8.502;2022-09-28T15:42:41;3;;;0;;
6951;SDS011;3515;50.138;8.502;2022-09-28T15:45:19;2;;;0;;
6951;SDS011;3515;50.138;8.502;2022-09-28T15:47:38;3;;;0;;
6951;SDS011;3515;50.138;8.502;2022-09-28T15:50:02;3;;;0;;
6951;SDS011;3515;50.138;8.502;2022-09-28T15:52:29;3;;;0;;
6951;SDS011;3515;50.138;8.502;2022-09-28T15:54:52;3;;;0;;
6951;SDS011;3515;50.138;8.502;2022-09-28T15:59:42;3;;;0;;
6951;SDS011;3515;50.138;8.502;2022-09-28T16:02:09;3;;;0;;
6951;SDS011;3515;50.138;8.502;2022-09-28T16:04:34;3;;;0;;
6951;SDS011;3515;50.138;8.502;2022-09-28T16:09:31;3;;;0;;
6951;SDS011;3515;50.138;8.502;2022-09-28T16:11:49;3;;;0;;
6951;SDS011;3515;50.138;8.502;2022-09-28T16:14:15;3;;;0;;
6951;SDS011;3515;50.138;8.502;2022-09-28T16:16:43;3;;;0;;
6951;SDS011;3515;50.138;8.502;2022-09-28T16:19:05;3;;;0;;
6951;SDS011;3515;50.138;8.502;2022-09-28T16:21:37;2;;;0;;
6951;SDS011;3515;50.138;8.502;2022-09-28T16:23:55;2;;;0;;
6951;SDS011;3515;50.138;8.502;2022-09-28T16:26:26;2;;;0;;
6951;SDS011;3515;50.138;8.502;2022-09-28T16:28:52;2;;;0;;
6951;SDS011;3515;50.138;8.502;2022-09-28T16:31:26;2;;;0;;
6951;SDS011;3515;50.138;8.502;2022-09-28T16:33:42;2;;;0;;
6951;SDS011;3515;50.138;8.502;2022-09-28T16:36:10;2;;;0;;
6951;SDS011;3515;50.138;8.502;2022-09-28T16:38:32;2;;;0;;
6951;SDS011;3515;50.138;8.502;2022-09-28T16:40:57;2;;;0;;
6951;SDS011;3515;50.138;8.502;2022-09-28T16:43:23;2;;;0;;
6951;SDS011;3515;50.138;8.502;2022-09-28T16:45:48;2;;;0;;
6951;SDS011;3515;50.138;8.502;2022-09-28T16:48:18;2;;;0;;
6951;SDS011;3515;50.138;8.502;2022-09-28T16:50:43;2;;;0;;
6951;SDS011;3515;50.138;8.502;2022-09-28T16:53:11;3;;;0;;
6951;SDS011;3515;50.138;8.502;2022-09-28T16:55:33;3;;;0;;
6951;SDS011;3515;50.138;8.502;2022-09-28T16:57:59;3;;;0;;